LCLK/LCA METAR and TAF weather

Enter ICAO airport designator
Station Type Date Time Source
LCLK METAR 2024/04/23 05:00 UTC NOAA

LCLK 230500Z VRB02KT CAVOK 19/15 Q1019 NOSIG


Station Type Date Time Source
LCLK Decoded METAR 2024/04/23 05:00 UTC NOAA

Larnaca Airport, Cyprus (LCLK) 34-53N 033-38E 2M
Apr 23, 2024 - 01:00 AM EDT / 2024.04.23 0500 UTC
Wind: Variable at 2 MPH (2 KT):0
Visibility: greater than 7 mile(s):0
Temperature: 66 F (19 C)
Dew Point: 59 F (15 C)
Relative Humidity: 77%
Pressure (altimeter): 30.09 in. Hg (1019 hPa)
ob: LCLK 230500Z VRB02KT CAVOK 19/15 Q1019 NOSIG
cycle: 5

Station Type Date Time Source
LCLK TAF 2024/04/22 18:30 UTC NOAA